Terminal Aerodrome Forecast
Issued by NWS

Home | Current Version | Previous Version | Text Only | Print | Product List | Glossary On
Versions: 1 2 3 4 5 6 7 8 9 10 11 12 13 14 15 16 17 18 19 20 21 22
000
FTUS41 KBGM 302300
TAFITH
TAF
KITH 302321Z 3100/3124 00000KT P6SM OVC045
     FM310300 VRB03KT P6SM BKN035
     FM311100 16003KT P6SM OVC025
     FM311400 16007KT P6SM BKN050 OVC200
     FM312000 15004KT P6SM OVC100=

USA.gov is the U.S. government's official web portal to all federal, state and local government web resources and services.